sensor_id;sensor_type;location;lat;lon;timestamp;P1;durP1;ratioP1;P2;durP2;ratioP2
53479;SDS011;56133;51.012;-1.648;2022-09-03T00:00:52;11.32;;;10.23;;
53479;SDS011;56133;51.012;-1.648;2022-09-03T00:03:26;11.32;;;10.13;;
53479;SDS011;56133;51.012;-1.648;2022-09-03T00:06:17;11.80;;;10.48;;
53479;SDS011;56133;51.012;-1.648;2022-09-03T00:08:56;11.65;;;10.05;;
53479;SDS011;56133;51.012;-1.648;2022-09-03T00:11:47;13.15;;;11.07;;
53479;SDS011;56133;51.012;-1.648;2022-09-03T00:14:33;14.02;;;11.88;;
53479;SDS011;56133;51.012;-1.648;2022-09-03T00:17:08;16.02;;;12.15;;
53479;SDS011;56133;51.012;-1.648;2022-09-03T00:19:44;14.80;;;11.25;;
53479;SDS011;56133;51.012;-1.648;2022-09-03T00:22:31;14.30;;;11.90;;
53479;SDS011;56133;51.012;-1.648;2022-09-03T00:25:01;14.63;;;12.70;;
53479;SDS011;56133;51.012;-1.648;2022-09-03T00:27:28;14.18;;;12.23;;
53479;SDS011;56133;51.012;-1.648;2022-09-03T00:30:02;14.35;;;11.80;;
53479;SDS011;56133;51.012;-1.648;2022-09-03T00:32:47;15.25;;;12.63;;
53479;SDS011;56133;51.012;-1.648;2022-09-03T00:35:26;13.25;;;11.85;;
53479;SDS011;56133;51.012;-1.648;2022-09-03T00:38:15;15.75;;;13.18;;
53479;SDS011;56133;51.012;-1.648;2022-09-03T00:45:53;16.48;;;14.23;;
53479;SDS011;56133;51.012;-1.648;2022-09-03T00:48:31;16.92;;;13.55;;
53479;SDS011;56133;51.012;-1.648;2022-09-03T00:53:37;16.92;;;14.55;;
53479;SDS011;56133;51.012;-1.648;2022-09-03T01:01:49;16.58;;;14.25;;
53479;SDS011;56133;51.012;-1.648;2022-09-03T01:04:46;15.18;;;13.68;;
53479;SDS011;56133;51.012;-1.648;2022-09-03T01:18:32;19.95;;;15.35;;
53479;SDS011;56133;51.012;-1.648;2022-09-03T01:27:00;39.63;;;26.83;;
53479;SDS011;56133;51.012;-1.648;2022-09-03T01:32:39;36.40;;;26.33;;
53479;SDS011;56133;51.012;-1.648;2022-09-03T01:35:36;38.70;;;27.70;;
53479;SDS011;56133;51.012;-1.648;2022-09-03T01:46:44;24.63;;;20.67;;
53479;SDS011;56133;51.012;-1.648;2022-09-03T01:52:00;33.30;;;25.25;;
53479;SDS011;56133;51.012;-1.648;2022-09-03T01:58:25;51.70;;;37.78;;
53479;SDS011;56133;51.012;-1.648;2022-09-03T02:00:33;46.88;;;32.92;;
53479;SDS011;56133;51.012;-1.648;2022-09-03T02:03:04;41.90;;;28.17;;
53479;SDS011;56133;51.012;-1.648;2022-09-03T02:05:32;36.33;;;25.98;;
53479;SDS011;56133;51.012;-1.648;2022-09-03T02:10:48;37.95;;;28.90;;
53479;SDS011;56133;51.012;-1.648;2022-09-03T02:13:19;45.35;;;30.85;;
53479;SDS011;56133;51.012;-1.648;2022-09-03T02:15:49;43.63;;;30.73;;
53479;SDS011;56133;51.012;-1.648;2022-09-03T02:18:18;49.65;;;33.38;;
53479;SDS011;56133;51.012;-1.648;2022-09-03T02:20:48;55.33;;;35.08;;
53479;SDS011;56133;51.012;-1.648;2022-09-03T02:23:15;49.00;;;33.03;;
53479;SDS011;56133;51.012;-1.648;2022-09-03T02:25:42;49.45;;;31.52;;
53479;SDS011;56133;51.012;-1.648;2022-09-03T02:28:12;47.08;;;31.58;;
53479;SDS011;56133;51.012;-1.648;2022-09-03T02:30:39;60.97;;;33.63;;
53479;SDS011;56133;51.012;-1.648;2022-09-03T02:33:05;51.90;;;35.03;;
53479;SDS011;56133;51.012;-1.648;2022-09-03T02:35:31;54.15;;;37.38;;
53479;SDS011;56133;51.012;-1.648;2022-09-03T02:37:56;54.78;;;37.47;;
53479;SDS011;56133;51.012;-1.648;2022-09-03T02:40:32;53.47;;;37.60;;
53479;SDS011;56133;51.012;-1.648;2022-09-03T02:42:59;51.35;;;37.67;;
53479;SDS011;56133;51.012;-1.648;2022-09-03T02:45:26;50.38;;;37.70;;
53479;SDS011;56133;51.012;-1.648;2022-09-03T02:47:54;46.25;;;35.85;;
53479;SDS011;56133;51.012;-1.648;2022-09-03T02:50:22;47.05;;;36.17;;
53479;SDS011;56133;51.012;-1.648;2022-09-03T02:52:48;49.90;;;37.78;;
53479;SDS011;56133;51.012;-1.648;2022-09-03T02:55:14;46.10;;;36.33;;
53479;SDS011;56133;51.012;-1.648;2022-09-03T02:57:40;44.50;;;36.13;;
53479;SDS011;56133;51.012;-1.648;2022-09-03T03:00:06;42.63;;;34.60;;
53479;SDS011;56133;51.012;-1.648;2022-09-03T03:02:32;44.78;;;36.03;;
53479;SDS011;56133;51.012;-1.648;2022-09-03T03:04:58;38.70;;;32.00;;
53479;SDS011;56133;51.012;-1.648;2022-09-03T03:07:23;44.35;;;34.03;;
53479;SDS011;56133;51.012;-1.648;2022-09-03T03:09:50;45.88;;;34.17;;
53479;SDS011;56133;51.012;-1.648;2022-09-03T03:12:16;42.28;;;32.08;;
53479;SDS011;56133;51.012;-1.648;2022-09-03T03:14:41;39.75;;;31.08;;
53479;SDS011;56133;51.012;-1.648;2022-09-03T03:17:07;36.97;;;28.63;;
53479;SDS011;56133;51.012;-1.648;2022-09-03T03:19:33;36.90;;;29.40;;
53479;SDS011;56133;51.012;-1.648;2022-09-03T03:21:58;41.30;;;30.20;;
53479;SDS011;56133;51.012;-1.648;2022-09-03T03:24:24;40.85;;;28.98;;
53479;SDS011;56133;51.012;-1.648;2022-09-03T03:26:49;45.25;;;31.85;;
53479;SDS011;56133;51.012;-1.648;2022-09-03T03:29:15;46.60;;;34.80;;
53479;SDS011;56133;51.012;-1.648;2022-09-03T03:31:41;50.05;;;34.95;;
53479;SDS011;56133;51.012;-1.648;2022-09-03T03:34:07;56.72;;;39.38;;
53479;SDS011;56133;51.012;-1.648;2022-09-03T03:36:33;57.47;;;41.47;;
53479;SDS011;56133;51.012;-1.648;2022-09-03T03:39:00;61.50;;;39.78;;
53479;SDS011;56133;51.012;-1.648;2022-09-03T03:41:27;56.58;;;38.67;;
53479;SDS011;56133;51.012;-1.648;2022-09-03T03:43:58;59.53;;;38.97;;
53479;SDS011;56133;51.012;-1.648;2022-09-03T03:46:28;58.25;;;36.15;;
53479;SDS011;56133;51.012;-1.648;2022-09-03T03:48:55;51.40;;;34.08;;
53479;SDS011;56133;51.012;-1.648;2022-09-03T03:51:21;55.08;;;34.60;;
53479;SDS011;56133;51.012;-1.648;2022-09-03T03:53:46;54.40;;;33.50;;
53479;SDS011;56133;51.012;-1.648;2022-09-03T03:56:12;50.33;;;33.08;;
53479;SDS011;56133;51.012;-1.648;2022-09-03T03:58:40;48.58;;;31.48;;
53479;SDS011;56133;51.012;-1.648;2022-09-03T04:01:11;50.35;;;35.00;;
53479;SDS011;56133;51.012;-1.648;2022-09-03T04:03:39;51.55;;;34.67;;
53479;SDS011;56133;51.012;-1.648;2022-09-03T04:06:05;46.05;;;31.40;;
53479;SDS011;56133;51.012;-1.648;2022-09-03T04:08:33;43.78;;;31.30;;
53479;SDS011;56133;51.012;-1.648;2022-09-03T04:11:00;42.75;;;29.88;;
53479;SDS011;56133;51.012;-1.648;2022-09-03T04:13:28;45.97;;;32.08;;
53479;SDS011;56133;51.012;-1.648;2022-09-03T04:16:05;45.05;;;29.23;;
53479;SDS011;56133;51.012;-1.648;2022-09-03T04:18:34;47.50;;;30.30;;
53479;SDS011;56133;51.012;-1.648;2022-09-03T04:21:00;54.20;;;31.63;;
53479;SDS011;56133;51.012;-1.648;2022-09-03T04:23:31;46.67;;;29.42;;
53479;SDS011;56133;51.012;-1.648;2022-09-03T04:26:02;51.60;;;31.52;;
53479;SDS011;56133;51.012;-1.648;2022-09-03T04:28:28;51.13;;;34.08;;
53479;SDS011;56133;51.012;-1.648;2022-09-03T04:30:53;43.50;;;30.95;;
53479;SDS011;56133;51.012;-1.648;2022-09-03T04:33:19;47.22;;;31.50;;
53479;SDS011;56133;51.012;-1.648;2022-09-03T04:35:45;44.28;;;29.38;;
53479;SDS011;56133;51.012;-1.648;2022-09-03T04:38:10;47.33;;;31.88;;
53479;SDS011;56133;51.012;-1.648;2022-09-03T04:40:36;50.38;;;30.45;;
53479;SDS011;56133;51.012;-1.648;2022-09-03T04:43:02;44.88;;;28.73;;
53479;SDS011;56133;51.012;-1.648;2022-09-03T04:45:28;47.25;;;30.10;;
53479;SDS011;56133;51.012;-1.648;2022-09-03T04:47:55;51.35;;;30.33;;
53479;SDS011;56133;51.012;-1.648;2022-09-03T04:50:27;45.67;;;29.70;;
53479;SDS011;56133;51.012;-1.648;2022-09-03T04:52:54;40.00;;;28.75;;
53479;SDS011;56133;51.012;-1.648;2022-09-03T04:55:20;39.67;;;27.48;;
53479;SDS011;56133;51.012;-1.648;2022-09-03T04:57:47;44.60;;;29.42;;
53479;SDS011;56133;51.012;-1.648;2022-09-03T05:00:12;47.42;;;30.67;;
53479;SDS011;56133;51.012;-1.648;2022-09-03T05:02:38;53.47;;;31.55;;
53479;SDS011;56133;51.012;-1.648;2022-09-03T05:05:03;77.88;;;36.50;;
53479;SDS011;56133;51.012;-1.648;2022-09-03T05:07:30;80.50;;;39.17;;
53479;SDS011;56133;51.012;-1.648;2022-09-03T05:10:04;236.13;;;47.60;;
53479;SDS011;56133;51.012;-1.648;2022-09-03T05:12:34;131.15;;;44.58;;
53479;SDS011;56133;51.012;-1.648;2022-09-03T05:14:59;105.10;;;42.15;;
53479;SDS011;56133;51.012;-1.648;2022-09-03T05:17:26;216.10;;;45.58;;
53479;SDS011;56133;51.012;-1.648;2022-09-03T05:19:51;157.50;;;44.30;;
53479;SDS011;56133;51.012;-1.648;2022-09-03T05:22:17;122.22;;;39.38;;
53479;SDS011;56133;51.012;-1.648;2022-09-03T05:24:48;158.23;;;35.13;;
53479;SDS011;56133;51.012;-1.648;2022-09-03T05:27:14;90.57;;;34.85;;
53479;SDS011;56133;51.012;-1.648;2022-09-03T05:29:43;91.65;;;34.58;;
53479;SDS011;56133;51.012;-1.648;2022-09-03T05:32:09;356.13;;;42.50;;
53479;SDS011;56133;51.012;-1.648;2022-09-03T05:34:36;306.63;;;42.05;;
53479;SDS011;56133;51.012;-1.648;2022-09-03T05:37:02;197.43;;;38.67;;
53479;SDS011;56133;51.012;-1.648;2022-09-03T05:39:27;345.42;;;40.03;;
53479;SDS011;56133;51.012;-1.648;2022-09-03T05:41:53;74.75;;;33.65;;
53479;SDS011;56133;51.012;-1.648;2022-09-03T05:44:18;63.70;;;30.70;;
53479;SDS011;56133;51.012;-1.648;2022-09-03T05:46:48;89.55;;;30.50;;
53479;SDS011;56133;51.012;-1.648;2022-09-03T05:49:15;168.85;;;31.52;;
53479;SDS011;56133;51.012;-1.648;2022-09-03T05:51:41;333.33;;;34.53;;
53479;SDS011;56133;51.012;-1.648;2022-09-03T05:54:08;74.13;;;28.13;;
53479;SDS011;56133;51.012;-1.648;2022-09-03T05:56:35;94.43;;;31.08;;
53479;SDS011;56133;51.012;-1.648;2022-09-03T05:59:02;68.85;;;29.83;;
53479;SDS011;56133;51.012;-1.648;2022-09-03T06:01:32;126.65;;;33.72;;
53479;SDS011;56133;51.012;-1.648;2022-09-03T06:04:06;276.85;;;34.92;;
53479;SDS011;56133;51.012;-1.648;2022-09-03T06:06:36;288.60;;;38.28;;
53479;SDS011;56133;51.012;-1.648;2022-09-03T06:09:05;77.55;;;32.50;;
53479;SDS011;56133;51.012;-1.648;2022-09-03T06:11:32;111.53;;;34.25;;
53479;SDS011;56133;51.012;-1.648;2022-09-03T06:14:00;78.30;;;33.65;;
53479;SDS011;56133;51.012;-1.648;2022-09-03T06:16:32;79.05;;;33.40;;
53479;SDS011;56133;51.012;-1.648;2022-09-03T06:19:00;78.18;;;35.45;;
53479;SDS011;56133;51.012;-1.648;2022-09-03T06:21:26;79.30;;;36.08;;
53479;SDS011;56133;51.012;-1.648;2022-09-03T06:23:52;92.20;;;38.95;;
53479;SDS011;56133;51.012;-1.648;2022-09-03T06:26:23;91.13;;;38.95;;
53479;SDS011;56133;51.012;-1.648;2022-09-03T06:28:49;86.30;;;38.30;;
53479;SDS011;56133;51.012;-1.648;2022-09-03T06:31:18;92.32;;;38.22;;
53479;SDS011;56133;51.012;-1.648;2022-09-03T06:33:45;85.90;;;36.47;;
53479;SDS011;56133;51.012;-1.648;2022-09-03T06:36:20;87.10;;;37.13;;
53479;SDS011;56133;51.012;-1.648;2022-09-03T06:38:50;99.75;;;39.28;;
53479;SDS011;56133;51.012;-1.648;2022-09-03T06:41:18;92.75;;;37.25;;
53479;SDS011;56133;51.012;-1.648;2022-09-03T06:43:45;85.05;;;36.45;;
53479;SDS011;56133;51.012;-1.648;2022-09-03T06:46:13;93.65;;;38.75;;
53479;SDS011;56133;51.012;-1.648;2022-09-03T06:48:40;96.20;;;39.55;;
53479;SDS011;56133;51.012;-1.648;2022-09-03T06:51:07;96.13;;;39.28;;
53479;SDS011;56133;51.012;-1.648;2022-09-03T06:53:37;98.75;;;40.78;;
53479;SDS011;56133;51.012;-1.648;2022-09-03T06:56:04;91.97;;;39.53;;
53479;SDS011;56133;51.012;-1.648;2022-09-03T06:58:36;83.78;;;37.47;;
53479;SDS011;56133;51.012;-1.648;2022-09-03T07:03:34;80.65;;;36.72;;
53479;SDS011;56133;51.012;-1.648;2022-09-03T07:06:18;75.90;;;36.80;;
53479;SDS011;56133;51.012;-1.648;2022-09-03T07:08:44;76.40;;;36.72;;
53479;SDS011;56133;51.012;-1.648;2022-09-03T07:11:14;76.68;;;36.65;;
53479;SDS011;56133;51.012;-1.648;2022-09-03T07:13:42;74.65;;;36.50;;
53479;SDS011;56133;51.012;-1.648;2022-09-03T07:18:37;62.30;;;32.35;;
53479;SDS011;56133;51.012;-1.648;2022-09-03T07:21:07;67.32;;;35.22;;
53479;SDS011;56133;51.012;-1.648;2022-09-03T07:23:35;63.90;;;32.80;;
53479;SDS011;56133;51.012;-1.648;2022-09-03T07:26:03;76.03;;;37.20;;
53479;SDS011;56133;51.012;-1.648;2022-09-03T07:28:31;74.03;;;36.17;;
53479;SDS011;56133;51.012;-1.648;2022-09-03T07:31:01;76.15;;;36.83;;
53479;SDS011;56133;51.012;-1.648;2022-09-03T07:33:28;75.70;;;35.15;;
53479;SDS011;56133;51.012;-1.648;2022-09-03T07:35:55;75.60;;;35.17;;
53479;SDS011;56133;51.012;-1.648;2022-09-03T07:38:25;68.28;;;35.17;;
53479;SDS011;56133;51.012;-1.648;2022-09-03T07:40:56;67.95;;;35.40;;
53479;SDS011;56133;51.012;-1.648;2022-09-03T07:43:23;82.93;;;40.45;;
53479;SDS011;56133;51.012;-1.648;2022-09-03T07:45:50;83.60;;;40.15;;
53479;SDS011;56133;51.012;-1.648;2022-09-03T07:48:15;81.38;;;40.65;;
53479;SDS011;56133;51.012;-1.648;2022-09-03T07:50:41;80.72;;;41.40;;
53479;SDS011;56133;51.012;-1.648;2022-09-03T07:53:07;75.28;;;39.47;;
53479;SDS011;56133;51.012;-1.648;2022-09-03T07:55:32;78.55;;;40.30;;
53479;SDS011;56133;51.012;-1.648;2022-09-03T07:57:58;77.85;;;41.22;;
53479;SDS011;56133;51.012;-1.648;2022-09-03T08:00:23;83.15;;;44.35;;
53479;SDS011;56133;51.012;-1.648;2022-09-03T08:02:52;77.03;;;42.90;;
53479;SDS011;56133;51.012;-1.648;2022-09-03T08:05:18;72.35;;;42.80;;
53479;SDS011;56133;51.012;-1.648;2022-09-03T08:07:45;69.82;;;40.10;;
53479;SDS011;56133;51.012;-1.648;2022-09-03T08:10:10;71.15;;;41.20;;
53479;SDS011;56133;51.012;-1.648;2022-09-03T08:12:37;70.05;;;41.53;;
53479;SDS011;56133;51.012;-1.648;2022-09-03T08:15:03;69.82;;;39.63;;
53479;SDS011;56133;51.012;-1.648;2022-09-03T08:17:29;69.32;;;41.35;;
53479;SDS011;56133;51.012;-1.648;2022-09-03T08:19:54;58.15;;;36.47;;
53479;SDS011;56133;51.012;-1.648;2022-09-03T08:22:21;56.65;;;36.88;;
53479;SDS011;56133;51.012;-1.648;2022-09-03T08:24:49;55.33;;;36.22;;
53479;SDS011;56133;51.012;-1.648;2022-09-03T08:27:15;55.83;;;38.17;;
53479;SDS011;56133;51.012;-1.648;2022-09-03T08:29:40;58.22;;;38.08;;
53479;SDS011;56133;51.012;-1.648;2022-09-03T08:32:06;53.72;;;37.42;;
53479;SDS011;56133;51.012;-1.648;2022-09-03T08:34:31;55.25;;;38.13;;
53479;SDS011;56133;51.012;-1.648;2022-09-03T08:36:56;50.97;;;35.70;;
53479;SDS011;56133;51.012;-1.648;2022-09-03T08:39:25;46.65;;;34.95;;
53479;SDS011;56133;51.012;-1.648;2022-09-03T08:58:05;35.60;;;27.25;;
53479;SDS011;56133;51.012;-1.648;2022-09-03T09:06:15;31.58;;;25.38;;
53479;SDS011;56133;51.012;-1.648;2022-09-03T09:19:30;23.27;;;19.10;;
53479;SDS011;56133;51.012;-1.648;2022-09-03T09:22:10;20.13;;;15.90;;
53479;SDS011;56133;51.012;-1.648;2022-09-03T09:24:43;14.95;;;12.50;;
53479;SDS011;56133;51.012;-1.648;2022-09-03T09:27:12;13.27;;;11.80;;
53479;SDS011;56133;51.012;-1.648;2022-09-03T09:29:43;11.82;;;9.85;;
53479;SDS011;56133;51.012;-1.648;2022-09-03T09:32:12;11.13;;;9.77;;
53479;SDS011;56133;51.012;-1.648;2022-09-03T09:34:41;14.52;;;10.98;;
53479;SDS011;56133;51.012;-1.648;2022-09-03T09:37:08;10.95;;;9.38;;
53479;SDS011;56133;51.012;-1.648;2022-09-03T09:39:35;13.45;;;8.82;;
53479;SDS011;56133;51.012;-1.648;2022-09-03T09:42:05;11.50;;;8.88;;
53479;SDS011;56133;51.012;-1.648;2022-09-03T09:44:35;9.88;;;8.43;;
53479;SDS011;56133;51.012;-1.648;2022-09-03T09:47:03;12.32;;;9.40;;
53479;SDS011;56133;51.012;-1.648;2022-09-03T09:49:32;11.48;;;8.68;;
53479;SDS011;56133;51.012;-1.648;2022-09-03T09:52:05;10.40;;;8.63;;
53479;SDS011;56133;51.012;-1.648;2022-09-03T09:57:05;10.25;;;9.15;;
53479;SDS011;56133;51.012;-1.648;2022-09-03T09:59:32;11.07;;;9.13;;
53479;SDS011;56133;51.012;-1.648;2022-09-03T10:02:08;9.52;;;8.52;;
53479;SDS011;56133;51.012;-1.648;2022-09-03T10:04:34;9.93;;;8.82;;
53479;SDS011;56133;51.012;-1.648;2022-09-03T10:07:15;12.57;;;8.75;;
53479;SDS011;56133;51.012;-1.648;2022-09-03T10:09:58;10.32;;;8.70;;
53479;SDS011;56133;51.012;-1.648;2022-09-03T10:12:28;10.85;;;8.75;;
53479;SDS011;56133;51.012;-1.648;2022-09-03T10:21:00;11.27;;;9.05;;
53479;SDS011;56133;51.012;-1.648;2022-09-03T10:26:09;10.90;;;9.18;;
53479;SDS011;56133;51.012;-1.648;2022-09-03T10:28:39;10.60;;;8.70;;
53479;SDS011;56133;51.012;-1.648;2022-09-03T10:33:41;10.27;;;9.15;;
53479;SDS011;56133;51.012;-1.648;2022-09-03T10:36:27;10.55;;;8.75;;
53479;SDS011;56133;51.012;-1.648;2022-09-03T10:44:47;12.85;;;9.32;;
53479;SDS011;56133;51.012;-1.648;2022-09-03T10:50:22;11.00;;;8.23;;
53479;SDS011;56133;51.012;-1.648;2022-09-03T10:55:46;12.40;;;9.43;;
53479;SDS011;56133;51.012;-1.648;2022-09-03T11:01:15;13.60;;;10.40;;
53479;SDS011;56133;51.012;-1.648;2022-09-03T11:03:52;14.15;;;11.38;;
53479;SDS011;56133;51.012;-1.648;2022-09-03T11:06:28;12.43;;;10.30;;
53479;SDS011;56133;51.012;-1.648;2022-09-03T11:11:46;17.00;;;11.55;;
53479;SDS011;56133;51.012;-1.648;2022-09-03T11:14:19;16.52;;;12.57;;
53479;SDS011;56133;51.012;-1.648;2022-09-03T11:16:55;13.20;;;11.32;;
53479;SDS011;56133;51.012;-1.648;2022-09-03T11:19:35;12.80;;;9.80;;
53479;SDS011;56133;51.012;-1.648;2022-09-03T11:22:10;14.38;;;9.80;;
53479;SDS011;56133;51.012;-1.648;2022-09-03T11:24:37;11.80;;;8.98;;
53479;SDS011;56133;51.012;-1.648;2022-09-03T11:27:15;10.77;;;8.60;;
53479;SDS011;56133;51.012;-1.648;2022-09-03T11:29:53;11.20;;;7.30;;
53479;SDS011;56133;51.012;-1.648;2022-09-03T11:32:21;9.55;;;7.88;;
53479;SDS011;56133;51.012;-1.648;2022-09-03T11:34:52;11.63;;;8.50;;
53479;SDS011;56133;51.012;-1.648;2022-09-03T11:39:52;12.38;;;9.15;;
53479;SDS011;56133;51.012;-1.648;2022-09-03T11:42:25;12.00;;;8.20;;
53479;SDS011;56133;51.012;-1.648;2022-09-03T11:44:58;12.88;;;8.68;;
53479;SDS011;56133;51.012;-1.648;2022-09-03T11:47:43;9.38;;;7.68;;
53479;SDS011;56133;51.012;-1.648;2022-09-03T11:50:16;13.82;;;8.55;;
53479;SDS011;56133;51.012;-1.648;2022-09-03T11:52:49;13.60;;;9.32;;
53479;SDS011;56133;51.012;-1.648;2022-09-03T11:55:30;9.45;;;8.45;;
53479;SDS011;56133;51.012;-1.648;2022-09-03T11:57:58;11.75;;;9.23;;
53479;SDS011;56133;51.012;-1.648;2022-09-03T12:00:42;11.73;;;9.40;;
53479;SDS011;56133;51.012;-1.648;2022-09-03T12:03:11;13.07;;;9.02;;
53479;SDS011;56133;51.012;-1.648;2022-09-03T12:11:35;13.77;;;9.27;;
53479;SDS011;56133;51.012;-1.648;2022-09-03T12:17:02;11.38;;;8.82;;
53479;SDS011;56133;51.012;-1.648;2022-09-03T12:22:02;12.35;;;9.52;;
53479;SDS011;56133;51.012;-1.648;2022-09-03T12:24:28;13.10;;;9.13;;
53479;SDS011;56133;51.012;-1.648;2022-09-03T12:26:59;12.82;;;9.52;;
53479;SDS011;56133;51.012;-1.648;2022-09-03T12:29:26;12.50;;;10.35;;
53479;SDS011;56133;51.012;-1.648;2022-09-03T12:31:54;11.13;;;8.57;;
53479;SDS011;56133;51.012;-1.648;2022-09-03T12:34:21;10.68;;;8.23;;
53479;SDS011;56133;51.012;-1.648;2022-09-03T12:36:49;12.85;;;8.50;;
53479;SDS011;56133;51.012;-1.648;2022-09-03T12:42:10;10.80;;;8.40;;
53479;SDS011;56133;51.012;-1.648;2022-09-03T12:49:37;14.35;;;9.75;;
53479;SDS011;56133;51.012;-1.648;2022-09-03T12:52:07;12.18;;;8.68;;
53479;SDS011;56133;51.012;-1.648;2022-09-03T12:54:53;10.90;;;8.90;;
53479;SDS011;56133;51.012;-1.648;2022-09-03T12:57:24;11.90;;;8.80;;
53479;SDS011;56133;51.012;-1.648;2022-09-03T12:59:57;10.20;;;7.78;;
53479;SDS011;56133;51.012;-1.648;2022-09-03T13:05:35;10.88;;;7.95;;
53479;SDS011;56133;51.012;-1.648;2022-09-03T13:08:13;11.88;;;8.50;;
53479;SDS011;56133;51.012;-1.648;2022-09-03T13:10:44;10.60;;;7.30;;
53479;SDS011;56133;51.012;-1.648;2022-09-03T13:13:20;10.27;;;8.15;;
53479;SDS011;56133;51.012;-1.648;2022-09-03T13:15:56;10.43;;;7.63;;
53479;SDS011;56133;51.012;-1.648;2022-09-03T13:19:12;13.02;;;8.88;;
53479;SDS011;56133;51.012;-1.648;2022-09-03T13:21:14;11.77;;;9.30;;
53479;SDS011;56133;51.012;-1.648;2022-09-03T13:31:49;16.75;;;9.70;;
53479;SDS011;56133;51.012;-1.648;2022-09-03T13:39:49;9.75;;;8.60;;
53479;SDS011;56133;51.012;-1.648;2022-09-03T13:50:09;12.57;;;9.10;;
53479;SDS011;56133;51.012;-1.648;2022-09-03T13:55:47;10.88;;;8.18;;
53479;SDS011;56133;51.012;-1.648;2022-09-03T14:03:31;13.07;;;8.82;;
53479;SDS011;56133;51.012;-1.648;2022-09-03T14:06:04;13.82;;;9.07;;
53479;SDS011;56133;51.012;-1.648;2022-09-03T14:20:07;8.65;;;5.82;;
53479;SDS011;56133;51.012;-1.648;2022-09-03T14:22:48;9.73;;;5.32;;
53479;SDS011;56133;51.012;-1.648;2022-09-03T14:25:27;8.57;;;5.00;;
53479;SDS011;56133;51.012;-1.648;2022-09-03T14:27:54;8.27;;;5.18;;
53479;SDS011;56133;51.012;-1.648;2022-09-03T14:30:42;9.23;;;4.90;;
53479;SDS011;56133;51.012;-1.648;2022-09-03T14:46:54;8.95;;;5.55;;
53479;SDS011;56133;51.012;-1.648;2022-09-03T14:49:33;9.35;;;5.55;;
53479;SDS011;56133;51.012;-1.648;2022-09-03T15:00:33;9.18;;;5.47;;
53479;SDS011;56133;51.012;-1.648;2022-09-03T15:03:20;12.48;;;5.80;;
53479;SDS011;56133;51.012;-1.648;2022-09-03T15:12:04;10.18;;;6.00;;
53479;SDS011;56133;51.012;-1.648;2022-09-03T15:14:38;11.02;;;6.35;;
53479;SDS011;56133;51.012;-1.648;2022-09-03T15:23:15;8.30;;;5.78;;
53479;SDS011;56133;51.012;-1.648;2022-09-03T15:26:05;8.63;;;5.70;;
53479;SDS011;56133;51.012;-1.648;2022-09-03T15:28:56;9.73;;;6.00;;
53479;SDS011;56133;51.012;-1.648;2022-09-03T15:31:43;9.20;;;5.50;;
53479;SDS011;56133;51.012;-1.648;2022-09-03T15:36:54;11.80;;;5.00;;
53479;SDS011;56133;51.012;-1.648;2022-09-03T15:39:23;8.18;;;5.07;;
53479;SDS011;56133;51.012;-1.648;2022-09-03T15:41:55;9.07;;;4.85;;
53479;SDS011;56133;51.012;-1.648;2022-09-03T15:44:24;9.45;;;4.95;;
53479;SDS011;56133;51.012;-1.648;2022-09-03T15:47:05;10.73;;;4.15;;
53479;SDS011;56133;51.012;-1.648;2022-09-03T15:49:35;7.97;;;4.10;;
53479;SDS011;56133;51.012;-1.648;2022-09-03T15:57:36;9.27;;;4.40;;
53479;SDS011;56133;51.012;-1.648;2022-09-03T16:00:29;9.23;;;3.83;;
53479;SDS011;56133;51.012;-1.648;2022-09-03T16:03:00;4.85;;;3.50;;
53479;SDS011;56133;51.012;-1.648;2022-09-03T16:05:41;5.93;;;3.10;;
53479;SDS011;56133;51.012;-1.648;2022-09-03T16:08:16;8.25;;;2.97;;
53479;SDS011;56133;51.012;-1.648;2022-09-03T16:13:31;7.22;;;3.30;;
53479;SDS011;56133;51.012;-1.648;2022-09-03T16:19:15;4.55;;;2.53;;
53479;SDS011;56133;51.012;-1.648;2022-09-03T16:27:10;5.13;;;2.17;;
53479;SDS011;56133;51.012;-1.648;2022-09-03T16:29:53;5.28;;;2.05;;
53479;SDS011;56133;51.012;-1.648;2022-09-03T16:32:34;4.25;;;1.70;;
53479;SDS011;56133;51.012;-1.648;2022-09-03T16:38:16;3.15;;;1.13;;
53479;SDS011;56133;51.012;-1.648;2022-09-03T16:41:07;3.08;;;1.25;;
53479;SDS011;56133;51.012;-1.648;2022-09-03T16:43:39;2.75;;;1.00;;
53479;SDS011;56133;51.012;-1.648;2022-09-03T16:57:20;3.42;;;1.17;;
53479;SDS011;56133;51.012;-1.648;2022-09-03T17:10:30;3.42;;;1.50;;
53479;SDS011;56133;51.012;-1.648;2022-09-03T17:18:49;6.78;;;1.83;;
53479;SDS011;56133;51.012;-1.648;2022-09-03T17:24:05;4.00;;;1.77;;
53479;SDS011;56133;51.012;-1.648;2022-09-03T17:34:58;5.43;;;2.00;;
53479;SDS011;56133;51.012;-1.648;2022-09-03T17:37:39;6.90;;;2.20;;
53479;SDS011;56133;51.012;-1.648;2022-09-03T17:45:58;5.57;;;2.58;;
53479;SDS011;56133;51.012;-1.648;2022-09-03T17:51:23;5.60;;;2.90;;
53479;SDS011;56133;51.012;-1.648;2022-09-03T17:56:32;4.50;;;2.50;;
53479;SDS011;56133;51.012;-1.648;2022-09-03T18:01:48;5.70;;;2.60;;
53479;SDS011;56133;51.012;-1.648;2022-09-03T18:04:45;7.18;;;3.00;;
53479;SDS011;56133;51.012;-1.648;2022-09-03T18:10:09;6.93;;;2.88;;
53479;SDS011;56133;51.012;-1.648;2022-09-03T18:16:01;6.50;;;2.40;;
53479;SDS011;56133;51.012;-1.648;2022-09-03T18:18:41;7.30;;;2.60;;
53479;SDS011;56133;51.012;-1.648;2022-09-03T18:21:11;8.10;;;2.72;;
53479;SDS011;56133;51.012;-1.648;2022-09-03T18:24:20;6.13;;;2.67;;
53479;SDS011;56133;51.012;-1.648;2022-09-03T18:30:25;5.07;;;2.55;;
53479;SDS011;56133;51.012;-1.648;2022-09-03T18:33:09;5.32;;;2.05;;
53479;SDS011;56133;51.012;-1.648;2022-09-03T18:35:54;5.10;;;2.30;;
53479;SDS011;56133;51.012;-1.648;2022-09-03T18:38:38;6.93;;;3.38;;
53479;SDS011;56133;51.012;-1.648;2022-09-03T18:56:50;7.00;;;2.90;;
53479;SDS011;56133;51.012;-1.648;2022-09-03T19:02:48;8.93;;;3.40;;
53479;SDS011;56133;51.012;-1.648;2022-09-03T19:15:28;9.48;;;3.60;;
53479;SDS011;56133;51.012;-1.648;2022-09-03T19:21:06;6.50;;;3.50;;
53479;SDS011;56133;51.012;-1.648;2022-09-03T19:24:05;9.00;;;3.85;;
53479;SDS011;56133;51.012;-1.648;2022-09-03T19:32:49;8.85;;;4.07;;
53479;SDS011;56133;51.012;-1.648;2022-09-03T19:35:57;6.65;;;4.10;;
53479;SDS011;56133;51.012;-1.648;2022-09-03T19:41:51;10.35;;;4.45;;
53479;SDS011;56133;51.012;-1.648;2022-09-03T19:51:12;11.68;;;4.82;;
53479;SDS011;56133;51.012;-1.648;2022-09-03T19:54:01;7.20;;;4.90;;
53479;SDS011;56133;51.012;-1.648;2022-09-03T19:56:47;10.05;;;5.15;;
53479;SDS011;56133;51.012;-1.648;2022-09-03T19:59:34;10.77;;;5.32;;
53479;SDS011;56133;51.012;-1.648;2022-09-03T20:02:22;10.27;;;4.70;;
53479;SDS011;56133;51.012;-1.648;2022-09-03T20:05:09;9.50;;;4.97;;
53479;SDS011;56133;51.012;-1.648;2022-09-03T20:07:58;10.73;;;4.90;;
53479;SDS011;56133;51.012;-1.648;2022-09-03T20:10:43;12.90;;;5.53;;
53479;SDS011;56133;51.012;-1.648;2022-09-03T20:13:16;9.50;;;4.53;;
53479;SDS011;56133;51.012;-1.648;2022-09-03T20:21:36;7.07;;;4.60;;
53479;SDS011;56133;51.012;-1.648;2022-09-03T20:24:26;9.32;;;4.97;;
53479;SDS011;56133;51.012;-1.648;2022-09-03T20:27:20;11.88;;;5.20;;
53479;SDS011;56133;51.012;-1.648;2022-09-03T20:32:42;10.20;;;5.20;;
53479;SDS011;56133;51.012;-1.648;2022-09-03T20:38:33;10.65;;;5.40;;
53479;SDS011;56133;51.012;-1.648;2022-09-03T20:41:08;11.15;;;6.15;;
53479;SDS011;56133;51.012;-1.648;2022-09-03T20:55:22;9.30;;;5.68;;
53479;SDS011;56133;51.012;-1.648;2022-09-03T20:58:01;10.75;;;5.82;;
53479;SDS011;56133;51.012;-1.648;2022-09-03T21:00:49;8.32;;;5.60;;